sensor_id;sensor_type;location;lat;lon;timestamp;P1;durP1;ratioP1;P2;durP2;ratioP2
17725;SDS011;8983;53.156;17.960;2023-08-21T00:01:05;8.77;;;7.88;;
17725;SDS011;8983;53.156;17.960;2023-08-21T00:03:33;9.80;;;7.63;;
17725;SDS011;8983;53.156;17.960;2023-08-21T00:06:02;9.05;;;7.97;;
17725;SDS011;8983;53.156;17.960;2023-08-21T00:08:30;8.88;;;7.47;;
17725;SDS011;8983;53.156;17.960;2023-08-21T00:10:59;9.38;;;7.55;;
17725;SDS011;8983;53.156;17.960;2023-08-21T00:13:27;10.27;;;8.30;;
17725;SDS011;8983;53.156;17.960;2023-08-21T00:15:55;10.00;;;8.65;;
17725;SDS011;8983;53.156;17.960;2023-08-21T00:18:23;10.15;;;8.20;;
17725;SDS011;8983;53.156;17.960;2023-08-21T00:20:51;8.80;;;7.90;;
17725;SDS011;8983;53.156;17.960;2023-08-21T00:23:19;9.45;;;8.10;;
17725;SDS011;8983;53.156;17.960;2023-08-21T00:25:48;8.60;;;7.60;;
17725;SDS011;8983;53.156;17.960;2023-08-21T00:28:17;9.68;;;7.47;;
17725;SDS011;8983;53.156;17.960;2023-08-21T00:30:46;10.10;;;7.88;;
17725;SDS011;8983;53.156;17.960;2023-08-21T00:33:14;8.88;;;7.97;;
17725;SDS011;8983;53.156;17.960;2023-08-21T00:35:42;10.95;;;8.15;;
17725;SDS011;8983;53.156;17.960;2023-08-21T00:38:11;10.13;;;7.68;;
17725;SDS011;8983;53.156;17.960;2023-08-21T00:40:39;7.60;;;6.80;;
17725;SDS011;8983;53.156;17.960;2023-08-21T00:43:07;9.38;;;7.90;;
17725;SDS011;8983;53.156;17.960;2023-08-21T00:45:36;8.30;;;6.93;;
17725;SDS011;8983;53.156;17.960;2023-08-21T00:48:08;8.48;;;7.18;;
17725;SDS011;8983;53.156;17.960;2023-08-21T00:50:37;10.48;;;7.97;;
17725;SDS011;8983;53.156;17.960;2023-08-21T00:53:06;8.35;;;7.30;;
17725;SDS011;8983;53.156;17.960;2023-08-21T00:55:34;8.75;;;7.22;;
17725;SDS011;8983;53.156;17.960;2023-08-21T00:58:03;8.57;;;7.13;;
17725;SDS011;8983;53.156;17.960;2023-08-21T01:00:32;9.00;;;7.85;;
17725;SDS011;8983;53.156;17.960;2023-08-21T01:03:02;7.55;;;6.63;;
17725;SDS011;8983;53.156;17.960;2023-08-21T01:05:31;10.90;;;7.60;;
17725;SDS011;8983;53.156;17.960;2023-08-21T01:08:00;9.75;;;8.20;;
17725;SDS011;8983;53.156;17.960;2023-08-21T01:10:37;8.85;;;7.95;;
17725;SDS011;8983;53.156;17.960;2023-08-21T01:13:12;9.65;;;7.60;;
17725;SDS011;8983;53.156;17.960;2023-08-21T01:15:49;9.60;;;7.75;;
17725;SDS011;8983;53.156;17.960;2023-08-21T01:18:21;8.57;;;7.60;;
17725;SDS011;8983;53.156;17.960;2023-08-21T01:20:50;8.60;;;7.70;;
17725;SDS011;8983;53.156;17.960;2023-08-21T01:23:33;8.20;;;7.38;;
17725;SDS011;8983;53.156;17.960;2023-08-21T01:26:01;8.40;;;7.60;;
17725;SDS011;8983;53.156;17.960;2023-08-21T01:28:29;7.68;;;6.90;;
17725;SDS011;8983;53.156;17.960;2023-08-21T01:30:59;8.55;;;7.32;;
17725;SDS011;8983;53.156;17.960;2023-08-21T01:33:35;9.15;;;7.70;;
17725;SDS011;8983;53.156;17.960;2023-08-21T01:36:08;7.97;;;7.05;;
17725;SDS011;8983;53.156;17.960;2023-08-21T01:38:37;9.55;;;7.07;;
17725;SDS011;8983;53.156;17.960;2023-08-21T01:41:06;9.48;;;7.30;;
17725;SDS011;8983;53.156;17.960;2023-08-21T01:43:34;9.48;;;8.30;;
17725;SDS011;8983;53.156;17.960;2023-08-21T01:46:02;8.48;;;6.93;;
17725;SDS011;8983;53.156;17.960;2023-08-21T01:48:30;8.02;;;7.07;;
17725;SDS011;8983;53.156;17.960;2023-08-21T01:51:00;9.05;;;7.43;;
17725;SDS011;8983;53.156;17.960;2023-08-21T01:53:28;8.70;;;7.45;;
17725;SDS011;8983;53.156;17.960;2023-08-21T01:55:58;8.90;;;8.00;;
17725;SDS011;8983;53.156;17.960;2023-08-21T01:58:26;8.70;;;7.80;;
17725;SDS011;8983;53.156;17.960;2023-08-21T02:00:54;8.90;;;7.15;;
17725;SDS011;8983;53.156;17.960;2023-08-21T02:03:24;7.97;;;6.85;;
17725;SDS011;8983;53.156;17.960;2023-08-21T02:05:55;7.93;;;7.13;;
17725;SDS011;8983;53.156;17.960;2023-08-21T02:08:25;8.75;;;7.03;;
17725;SDS011;8983;53.156;17.960;2023-08-21T02:10:54;7.75;;;6.80;;
17725;SDS011;8983;53.156;17.960;2023-08-21T02:13:24;9.07;;;6.75;;
17725;SDS011;8983;53.156;17.960;2023-08-21T02:15:52;8.60;;;6.28;;
17725;SDS011;8983;53.156;17.960;2023-08-21T02:18:20;8.25;;;6.40;;
17725;SDS011;8983;53.156;17.960;2023-08-21T02:20:48;9.10;;;6.82;;
17725;SDS011;8983;53.156;17.960;2023-08-21T02:23:16;7.38;;;6.57;;
17725;SDS011;8983;53.156;17.960;2023-08-21T02:25:44;7.63;;;6.63;;
17725;SDS011;8983;53.156;17.960;2023-08-21T02:28:12;6.72;;;6.07;;
17725;SDS011;8983;53.156;17.960;2023-08-21T02:30:42;9.90;;;6.82;;
17725;SDS011;8983;53.156;17.960;2023-08-21T02:33:10;9.13;;;7.00;;
17725;SDS011;8983;53.156;17.960;2023-08-21T02:35:38;12.57;;;7.45;;
17725;SDS011;8983;53.156;17.960;2023-08-21T02:38:06;8.00;;;6.80;;
17725;SDS011;8983;53.156;17.960;2023-08-21T02:40:34;8.57;;;6.75;;
17725;SDS011;8983;53.156;17.960;2023-08-21T02:43:02;8.43;;;6.80;;
17725;SDS011;8983;53.156;17.960;2023-08-21T02:45:30;9.02;;;6.45;;
17725;SDS011;8983;53.156;17.960;2023-08-21T02:48:00;9.50;;;6.82;;
17725;SDS011;8983;53.156;17.960;2023-08-21T02:50:28;8.82;;;6.78;;
17725;SDS011;8983;53.156;17.960;2023-08-21T02:52:56;9.27;;;6.47;;
17725;SDS011;8983;53.156;17.960;2023-08-21T02:55:24;8.80;;;6.72;;
17725;SDS011;8983;53.156;17.960;2023-08-21T02:57:52;9.27;;;7.10;;
17725;SDS011;8983;53.156;17.960;2023-08-21T03:00:21;10.55;;;6.88;;
17725;SDS011;8983;53.156;17.960;2023-08-21T03:02:49;8.57;;;6.75;;
17725;SDS011;8983;53.156;17.960;2023-08-21T03:05:18;9.30;;;6.70;;
17725;SDS011;8983;53.156;17.960;2023-08-21T03:07:46;7.32;;;5.93;;
17725;SDS011;8983;53.156;17.960;2023-08-21T03:10:14;7.75;;;6.22;;
17725;SDS011;8983;53.156;17.960;2023-08-21T03:12:42;10.07;;;6.70;;
17725;SDS011;8983;53.156;17.960;2023-08-21T03:15:10;7.88;;;6.22;;
17725;SDS011;8983;53.156;17.960;2023-08-21T03:17:38;9.75;;;6.40;;
17725;SDS011;8983;53.156;17.960;2023-08-21T03:20:07;7.65;;;5.70;;
17725;SDS011;8983;53.156;17.960;2023-08-21T03:22:37;5.95;;;5.35;;
17725;SDS011;8983;53.156;17.960;2023-08-21T03:25:06;9.23;;;5.93;;
17725;SDS011;8983;53.156;17.960;2023-08-21T03:27:34;7.43;;;5.57;;
17725;SDS011;8983;53.156;17.960;2023-08-21T03:30:05;10.85;;;6.07;;
17725;SDS011;8983;53.156;17.960;2023-08-21T03:32:36;6.82;;;5.65;;
17725;SDS011;8983;53.156;17.960;2023-08-21T03:35:05;7.13;;;5.38;;
17725;SDS011;8983;53.156;17.960;2023-08-21T03:37:33;6.10;;;5.07;;
17725;SDS011;8983;53.156;17.960;2023-08-21T03:40:03;7.25;;;5.60;;
17725;SDS011;8983;53.156;17.960;2023-08-21T03:42:32;6.68;;;5.20;;
17725;SDS011;8983;53.156;17.960;2023-08-21T03:45:00;7.03;;;5.53;;
17725;SDS011;8983;53.156;17.960;2023-08-21T03:47:30;9.88;;;5.78;;
17725;SDS011;8983;53.156;17.960;2023-08-21T03:49:58;8.37;;;5.67;;
17725;SDS011;8983;53.156;17.960;2023-08-21T03:52:26;10.57;;;5.50;;
17725;SDS011;8983;53.156;17.960;2023-08-21T03:54:54;6.13;;;5.50;;
17725;SDS011;8983;53.156;17.960;2023-08-21T03:57:24;8.18;;;5.38;;
17725;SDS011;8983;53.156;17.960;2023-08-21T03:59:52;6.50;;;4.88;;
17725;SDS011;8983;53.156;17.960;2023-08-21T04:02:20;7.40;;;5.45;;
17725;SDS011;8983;53.156;17.960;2023-08-21T04:04:51;7.05;;;5.47;;
17725;SDS011;8983;53.156;17.960;2023-08-21T04:07:19;7.80;;;5.00;;
17725;SDS011;8983;53.156;17.960;2023-08-21T04:09:47;7.43;;;5.47;;
17725;SDS011;8983;53.156;17.960;2023-08-21T04:12:15;8.27;;;6.03;;
17725;SDS011;8983;53.156;17.960;2023-08-21T04:14:45;8.32;;;5.90;;
17725;SDS011;8983;53.156;17.960;2023-08-21T04:17:13;6.45;;;5.38;;
17725;SDS011;8983;53.156;17.960;2023-08-21T04:19:41;7.93;;;5.28;;
17725;SDS011;8983;53.156;17.960;2023-08-21T04:22:10;7.30;;;5.90;;
17725;SDS011;8983;53.156;17.960;2023-08-21T04:24:38;8.05;;;5.57;;
17725;SDS011;8983;53.156;17.960;2023-08-21T04:27:06;7.85;;;5.72;;
17725;SDS011;8983;53.156;17.960;2023-08-21T04:29:34;6.95;;;5.60;;
17725;SDS011;8983;53.156;17.960;2023-08-21T04:32:04;7.88;;;5.63;;
17725;SDS011;8983;53.156;17.960;2023-08-21T04:34:32;7.38;;;5.15;;
17725;SDS011;8983;53.156;17.960;2023-08-21T04:37:01;10.63;;;5.35;;
17725;SDS011;8983;53.156;17.960;2023-08-21T04:39:29;8.07;;;5.10;;
17725;SDS011;8983;53.156;17.960;2023-08-21T04:41:57;9.93;;;5.10;;
17725;SDS011;8983;53.156;17.960;2023-08-21T04:44:25;9.10;;;5.60;;
17725;SDS011;8983;53.156;17.960;2023-08-21T04:46:53;7.15;;;5.13;;
17725;SDS011;8983;53.156;17.960;2023-08-21T04:49:23;8.27;;;5.13;;
17725;SDS011;8983;53.156;17.960;2023-08-21T04:51:51;6.60;;;5.10;;
17725;SDS011;8983;53.156;17.960;2023-08-21T04:54:19;6.72;;;5.20;;
17725;SDS011;8983;53.156;17.960;2023-08-21T04:56:47;7.20;;;4.85;;
17725;SDS011;8983;53.156;17.960;2023-08-21T04:59:15;6.82;;;5.18;;
17725;SDS011;8983;53.156;17.960;2023-08-21T05:01:43;6.17;;;4.67;;
17725;SDS011;8983;53.156;17.960;2023-08-21T05:04:11;6.27;;;5.10;;
17725;SDS011;8983;53.156;17.960;2023-08-21T05:06:40;5.80;;;4.95;;
17725;SDS011;8983;53.156;17.960;2023-08-21T05:09:08;9.10;;;4.93;;
17725;SDS011;8983;53.156;17.960;2023-08-21T05:11:36;7.00;;;4.57;;
17725;SDS011;8983;53.156;17.960;2023-08-21T05:14:04;7.13;;;4.93;;
17725;SDS011;8983;53.156;17.960;2023-08-21T05:16:32;7.05;;;4.82;;
17725;SDS011;8983;53.156;17.960;2023-08-21T05:19:01;6.50;;;4.55;;
17725;SDS011;8983;53.156;17.960;2023-08-21T05:21:29;6.28;;;4.40;;
17725;SDS011;8983;53.156;17.960;2023-08-21T05:23:58;6.37;;;4.50;;
17725;SDS011;8983;53.156;17.960;2023-08-21T05:26:26;7.07;;;4.20;;
17725;SDS011;8983;53.156;17.960;2023-08-21T05:28:54;7.90;;;4.60;;
17725;SDS011;8983;53.156;17.960;2023-08-21T05:31:22;5.40;;;4.07;;
17725;SDS011;8983;53.156;17.960;2023-08-21T05:33:51;8.33;;;4.80;;
17725;SDS011;8983;53.156;17.960;2023-08-21T05:36:19;4.43;;;3.97;;
17725;SDS011;8983;53.156;17.960;2023-08-21T05:38:47;6.47;;;4.50;;
17725;SDS011;8983;53.156;17.960;2023-08-21T05:41:16;5.20;;;4.45;;
17725;SDS011;8983;53.156;17.960;2023-08-21T05:43:44;5.65;;;4.20;;
17725;SDS011;8983;53.156;17.960;2023-08-21T05:46:13;6.85;;;3.95;;
17725;SDS011;8983;53.156;17.960;2023-08-21T05:48:42;6.25;;;4.15;;
17725;SDS011;8983;53.156;17.960;2023-08-21T05:51:10;5.63;;;4.07;;
17725;SDS011;8983;53.156;17.960;2023-08-21T05:53:38;5.85;;;3.88;;
17725;SDS011;8983;53.156;17.960;2023-08-21T05:56:06;6.35;;;4.40;;
17725;SDS011;8983;53.156;17.960;2023-08-21T05:58:35;4.35;;;3.78;;
17725;SDS011;8983;53.156;17.960;2023-08-21T06:01:06;5.03;;;4.00;;
17725;SDS011;8983;53.156;17.960;2023-08-21T06:03:34;6.75;;;4.05;;
17725;SDS011;8983;53.156;17.960;2023-08-21T06:06:02;6.28;;;3.90;;
17725;SDS011;8983;53.156;17.960;2023-08-21T06:08:31;6.95;;;3.60;;
17725;SDS011;8983;53.156;17.960;2023-08-21T06:10:59;7.07;;;3.95;;
17725;SDS011;8983;53.156;17.960;2023-08-21T06:13:27;7.35;;;3.90;;
17725;SDS011;8983;53.156;17.960;2023-08-21T06:15:57;4.97;;;3.85;;
17725;SDS011;8983;53.156;17.960;2023-08-21T06:18:25;3.95;;;3.15;;
17725;SDS011;8983;53.156;17.960;2023-08-21T06:20:54;6.13;;;3.13;;
17725;SDS011;8983;53.156;17.960;2023-08-21T06:23:22;3.83;;;3.40;;
17725;SDS011;8983;53.156;17.960;2023-08-21T06:25:50;5.00;;;3.20;;
17725;SDS011;8983;53.156;17.960;2023-08-21T06:28:18;4.45;;;3.55;;
17725;SDS011;8983;53.156;17.960;2023-08-21T06:30:46;4.32;;;3.58;;
17725;SDS011;8983;53.156;17.960;2023-08-21T06:33:16;6.13;;;3.67;;
17725;SDS011;8983;53.156;17.960;2023-08-21T06:35:44;4.05;;;3.42;;
17725;SDS011;8983;53.156;17.960;2023-08-21T06:38:12;7.60;;;3.35;;
17725;SDS011;8983;53.156;17.960;2023-08-21T06:40:40;4.40;;;3.33;;
17725;SDS011;8983;53.156;17.960;2023-08-21T06:43:08;4.32;;;2.60;;
17725;SDS011;8983;53.156;17.960;2023-08-21T06:45:36;3.97;;;3.03;;
17725;SDS011;8983;53.156;17.960;2023-08-21T06:48:04;4.95;;;3.08;;
17725;SDS011;8983;53.156;17.960;2023-08-21T06:50:36;3.45;;;2.85;;
17725;SDS011;8983;53.156;17.960;2023-08-21T06:53:04;5.28;;;3.00;;
17725;SDS011;8983;53.156;17.960;2023-08-21T06:55:32;5.50;;;2.72;;
17725;SDS011;8983;53.156;17.960;2023-08-21T06:58:01;5.03;;;3.00;;
17725;SDS011;8983;53.156;17.960;2023-08-21T07:00:29;4.95;;;3.03;;
17725;SDS011;8983;53.156;17.960;2023-08-21T07:02:57;4.85;;;2.80;;
17725;SDS011;8983;53.156;17.960;2023-08-21T07:05:25;4.28;;;2.75;;
17725;SDS011;8983;53.156;17.960;2023-08-21T07:07:55;6.22;;;2.47;;
17725;SDS011;8983;53.156;17.960;2023-08-21T07:10:23;4.15;;;2.67;;
17725;SDS011;8983;53.156;17.960;2023-08-21T07:12:53;3.90;;;2.65;;
17725;SDS011;8983;53.156;17.960;2023-08-21T07:15:21;3.67;;;2.72;;
17725;SDS011;8983;53.156;17.960;2023-08-21T07:17:49;4.88;;;2.67;;
17725;SDS011;8983;53.156;17.960;2023-08-21T07:20:18;3.30;;;2.42;;
17725;SDS011;8983;53.156;17.960;2023-08-21T07:22:46;5.32;;;2.78;;
17725;SDS011;8983;53.156;17.960;2023-08-21T07:25:15;3.90;;;2.50;;
17725;SDS011;8983;53.156;17.960;2023-08-21T07:27:45;3.78;;;2.65;;
17725;SDS011;8983;53.156;17.960;2023-08-21T07:30:13;3.28;;;2.40;;
17725;SDS011;8983;53.156;17.960;2023-08-21T07:32:44;6.60;;;2.67;;
17725;SDS011;8983;53.156;17.960;2023-08-21T07:35:13;3.30;;;2.17;;
17725;SDS011;8983;53.156;17.960;2023-08-21T07:37:43;2.65;;;2.10;;
17725;SDS011;8983;53.156;17.960;2023-08-21T07:40:11;3.38;;;2.05;;
17725;SDS011;8983;53.156;17.960;2023-08-21T07:42:40;4.15;;;2.08;;
17725;SDS011;8983;53.156;17.960;2023-08-21T07:45:09;2.35;;;2.05;;
17725;SDS011;8983;53.156;17.960;2023-08-21T07:47:37;8.23;;;2.80;;
17725;SDS011;8983;53.156;17.960;2023-08-21T07:50:06;6.45;;;2.47;;
17725;SDS011;8983;53.156;17.960;2023-08-21T07:52:35;2.05;;;1.85;;
17725;SDS011;8983;53.156;17.960;2023-08-21T07:55:04;6.07;;;2.25;;
17725;SDS011;8983;53.156;17.960;2023-08-21T07:57:32;3.83;;;2.47;;
17725;SDS011;8983;53.156;17.960;2023-08-21T08:00:02;3.22;;;2.03;;
17725;SDS011;8983;53.156;17.960;2023-08-21T08:02:34;6.15;;;2.30;;
17725;SDS011;8983;53.156;17.960;2023-08-21T08:05:03;4.20;;;2.20;;
17725;SDS011;8983;53.156;17.960;2023-08-21T08:07:32;5.03;;;2.30;;
17725;SDS011;8983;53.156;17.960;2023-08-21T08:10:00;5.25;;;2.30;;
17725;SDS011;8983;53.156;17.960;2023-08-21T08:12:29;3.85;;;2.10;;
17725;SDS011;8983;53.156;17.960;2023-08-21T08:14:59;3.03;;;1.90;;
17725;SDS011;8983;53.156;17.960;2023-08-21T08:17:29;4.40;;;2.08;;
17725;SDS011;8983;53.156;17.960;2023-08-21T08:19:57;2.33;;;1.90;;
17725;SDS011;8983;53.156;17.960;2023-08-21T08:22:25;4.30;;;2.10;;
17725;SDS011;8983;53.156;17.960;2023-08-21T08:24:53;3.78;;;1.80;;
17725;SDS011;8983;53.156;17.960;2023-08-21T08:27:22;2.63;;;1.85;;
17725;SDS011;8983;53.156;17.960;2023-08-21T08:29:51;2.80;;;2.13;;
17725;SDS011;8983;53.156;17.960;2023-08-21T08:32:20;2.72;;;1.63;;
17725;SDS011;8983;53.156;17.960;2023-08-21T08:34:48;2.25;;;1.80;;
17725;SDS011;8983;53.156;17.960;2023-08-21T08:37:16;2.83;;;1.70;;
17725;SDS011;8983;53.156;17.960;2023-08-21T08:39:45;1.65;;;1.52;;
17725;SDS011;8983;53.156;17.960;2023-08-21T08:42:13;2.33;;;1.90;;
17725;SDS011;8983;53.156;17.960;2023-08-21T08:44:43;3.15;;;1.75;;
17725;SDS011;8983;53.156;17.960;2023-08-21T08:47:11;3.53;;;1.90;;
17725;SDS011;8983;53.156;17.960;2023-08-21T08:49:41;2.85;;;2.10;;
17725;SDS011;8983;53.156;17.960;2023-08-21T08:52:10;3.47;;;1.70;;
17725;SDS011;8983;53.156;17.960;2023-08-21T08:54:39;3.10;;;1.70;;
17725;SDS011;8983;53.156;17.960;2023-08-21T08:57:07;2.22;;;1.50;;
17725;SDS011;8983;53.156;17.960;2023-08-21T08:59:35;1.65;;;1.17;;
17725;SDS011;8983;53.156;17.960;2023-08-21T09:02:03;3.72;;;1.50;;
17725;SDS011;8983;53.156;17.960;2023-08-21T09:04:32;1.80;;;1.58;;
17725;SDS011;8983;53.156;17.960;2023-08-21T09:07:07;1.70;;;1.50;;
17725;SDS011;8983;53.156;17.960;2023-08-21T09:09:37;1.42;;;1.30;;
17725;SDS011;8983;53.156;17.960;2023-08-21T09:12:09;2.20;;;1.30;;
17725;SDS011;8983;53.156;17.960;2023-08-21T09:14:39;1.80;;;1.67;;
17725;SDS011;8983;53.156;17.960;2023-08-21T09:17:07;2.45;;;1.42;;
17725;SDS011;8983;53.156;17.960;2023-08-21T09:19:36;2.70;;;1.55;;
17725;SDS011;8983;53.156;17.960;2023-08-21T09:22:12;2.47;;;1.70;;
17725;SDS011;8983;53.156;17.960;2023-08-21T09:25:00;4.75;;;1.50;;
17725;SDS011;8983;53.156;17.960;2023-08-21T09:27:31;6.75;;;1.48;;
17725;SDS011;8983;53.156;17.960;2023-08-21T09:30:00;2.40;;;1.40;;
17725;SDS011;8983;53.156;17.960;2023-08-21T09:32:31;2.88;;;1.60;;
17725;SDS011;8983;53.156;17.960;2023-08-21T09:35:20;1.55;;;1.45;;
17725;SDS011;8983;53.156;17.960;2023-08-21T09:37:50;3.67;;;1.67;;
17725;SDS011;8983;53.156;17.960;2023-08-21T09:40:20;3.30;;;1.70;;
17725;SDS011;8983;53.156;17.960;2023-08-21T09:42:51;1.77;;;1.48;;
17725;SDS011;8983;53.156;17.960;2023-08-21T09:45:21;1.92;;;1.10;;
17725;SDS011;8983;53.156;17.960;2023-08-21T09:47:49;2.60;;;1.50;;
17725;SDS011;8983;53.156;17.960;2023-08-21T09:50:19;1.58;;;1.45;;
17725;SDS011;8983;53.156;17.960;2023-08-21T09:52:48;1.30;;;1.20;;
17725;SDS011;8983;53.156;17.960;2023-08-21T09:55:18;1.60;;;1.08;;
17725;SDS011;8983;53.156;17.960;2023-08-21T09:57:47;2.15;;;1.40;;
17725;SDS011;8983;53.156;17.960;2023-08-21T10:00:23;3.33;;;1.67;;
17725;SDS011;8983;53.156;17.960;2023-08-21T10:02:51;3.33;;;1.52;;
17725;SDS011;8983;53.156;17.960;2023-08-21T10:05:21;2.75;;;1.88;;
17725;SDS011;8983;53.156;17.960;2023-08-21T10:07:51;1.50;;;1.40;;
17725;SDS011;8983;53.156;17.960;2023-08-21T10:10:21;3.97;;;1.60;;
17725;SDS011;8983;53.156;17.960;2023-08-21T10:12:50;3.75;;;1.50;;
17725;SDS011;8983;53.156;17.960;2023-08-21T10:15:18;2.63;;;1.30;;
17725;SDS011;8983;53.156;17.960;2023-08-21T10:17:46;4.18;;;1.48;;
17725;SDS011;8983;53.156;17.960;2023-08-21T10:20:15;2.97;;;1.42;;
17725;SDS011;8983;53.156;17.960;2023-08-21T10:22:49;3.67;;;1.63;;
17725;SDS011;8983;53.156;17.960;2023-08-21T10:25:23;3.03;;;1.40;;
17725;SDS011;8983;53.156;17.960;2023-08-21T10:27:55;2.17;;;1.35;;
17725;SDS011;8983;53.156;17.960;2023-08-21T10:30:25;2.53;;;1.42;;
17725;SDS011;8983;53.156;17.960;2023-08-21T10:32:55;2.90;;;1.40;;
17725;SDS011;8983;53.156;17.960;2023-08-21T10:35:24;3.22;;;1.65;;
17725;SDS011;8983;53.156;17.960;2023-08-21T10:38:07;4.03;;;1.73;;
17725;SDS011;8983;53.156;17.960;2023-08-21T10:40:38;2.58;;;1.40;;
17725;SDS011;8983;53.156;17.960;2023-08-21T10:46:14;2.75;;;1.90;;
17725;SDS011;8983;53.156;17.960;2023-08-21T10:48:42;3.80;;;1.70;;
17725;SDS011;8983;53.156;17.960;2023-08-21T10:51:10;2.10;;;1.70;;
17725;SDS011;8983;53.156;17.960;2023-08-21T10:53:41;4.88;;;2.00;;
17725;SDS011;8983;53.156;17.960;2023-08-21T10:56:09;3.63;;;1.90;;
17725;SDS011;8983;53.156;17.960;2023-08-21T10:58:38;2.28;;;1.70;;
17725;SDS011;8983;53.156;17.960;2023-08-21T11:01:08;4.55;;;1.63;;
17725;SDS011;8983;53.156;17.960;2023-08-21T11:03:38;2.28;;;1.73;;
17725;SDS011;8983;53.156;17.960;2023-08-21T11:06:07;2.33;;;1.60;;
17725;SDS011;8983;53.156;17.960;2023-08-21T11:08:36;4.88;;;1.98;;
17725;SDS011;8983;53.156;17.960;2023-08-21T11:11:06;6.07;;;1.80;;
17725;SDS011;8983;53.156;17.960;2023-08-21T11:13:34;2.13;;;1.65;;
17725;SDS011;8983;53.156;17.960;2023-08-21T11:16:03;2.78;;;1.42;;
17725;SDS011;8983;53.156;17.960;2023-08-21T11:18:32;2.90;;;1.80;;
17725;SDS011;8983;53.156;17.960;2023-08-21T11:21:04;2.58;;;1.90;;
17725;SDS011;8983;53.156;17.960;2023-08-21T11:23:35;2.90;;;1.77;;
17725;SDS011;8983;53.156;17.960;2023-08-21T11:26:04;2.65;;;1.90;;
17725;SDS011;8983;53.156;17.960;2023-08-21T11:28:45;2.83;;;1.75;;
17725;SDS011;8983;53.156;17.960;2023-08-21T11:31:14;3.53;;;1.90;;
17725;SDS011;8983;53.156;17.960;2023-08-21T11:33:48;2.63;;;1.70;;
17725;SDS011;8983;53.156;17.960;2023-08-21T11:36:17;3.17;;;1.88;;
17725;SDS011;8983;53.156;17.960;2023-08-21T11:38:57;4.28;;;1.50;;
17725;SDS011;8983;53.156;17.960;2023-08-21T11:41:27;4.03;;;2.33;;
17725;SDS011;8983;53.156;17.960;2023-08-21T11:44:01;3.38;;;1.92;;
17725;SDS011;8983;53.156;17.960;2023-08-21T11:46:30;2.88;;;1.80;;
17725;SDS011;8983;53.156;17.960;2023-08-21T11:48:58;2.50;;;1.75;;
17725;SDS011;8983;53.156;17.960;2023-08-21T11:51:28;3.10;;;1.75;;
17725;SDS011;8983;53.156;17.960;2023-08-21T11:53:56;2.53;;;1.58;;
17725;SDS011;8983;53.156;17.960;2023-08-21T11:56:27;2.85;;;1.55;;
17725;SDS011;8983;53.156;17.960;2023-08-21T11:58:57;3.90;;;1.75;;
17725;SDS011;8983;53.156;17.960;2023-08-21T12:01:25;3.35;;;1.80;;
17725;SDS011;8983;53.156;17.960;2023-08-21T12:03:54;2.72;;;1.60;;
17725;SDS011;8983;53.156;17.960;2023-08-21T12:06:23;3.35;;;1.95;;
17725;SDS011;8983;53.156;17.960;2023-08-21T12:08:53;3.08;;;1.98;;
17725;SDS011;8983;53.156;17.960;2023-08-21T12:11:21;1.90;;;1.42;;
17725;SDS011;8983;53.156;17.960;2023-08-21T12:13:51;2.70;;;1.58;;
17725;SDS011;8983;53.156;17.960;2023-08-21T12:16:20;6.25;;;1.92;;
17725;SDS011;8983;53.156;17.960;2023-08-21T12:18:48;2.83;;;1.55;;
17725;SDS011;8983;53.156;17.960;2023-08-21T12:21:18;2.75;;;1.50;;
17725;SDS011;8983;53.156;17.960;2023-08-21T12:23:46;2.92;;;1.85;;
17725;SDS011;8983;53.156;17.960;2023-08-21T12:26:14;8.25;;;1.98;;
17725;SDS011;8983;53.156;17.960;2023-08-21T12:28:47;3.20;;;1.92;;
17725;SDS011;8983;53.156;17.960;2023-08-21T12:31:17;3.58;;;1.90;;
17725;SDS011;8983;53.156;17.960;2023-08-21T12:33:45;3.30;;;2.00;;
17725;SDS011;8983;53.156;17.960;2023-08-21T12:36:13;4.75;;;2.05;;
17725;SDS011;8983;53.156;17.960;2023-08-21T12:38:41;2.70;;;1.85;;
17725;SDS011;8983;53.156;17.960;2023-08-21T12:41:09;4.28;;;1.73;;
17725;SDS011;8983;53.156;17.960;2023-08-21T12:43:37;2.80;;;2.03;;
17725;SDS011;8983;53.156;17.960;2023-08-21T12:46:05;3.65;;;2.17;;
17725;SDS011;8983;53.156;17.960;2023-08-21T12:48:35;4.10;;;2.00;;
17725;SDS011;8983;53.156;17.960;2023-08-21T12:51:04;3.35;;;1.83;;
17725;SDS011;8983;53.156;17.960;2023-08-21T12:53:32;2.35;;;1.88;;
17725;SDS011;8983;53.156;17.960;2023-08-21T12:56:00;3.78;;;1.92;;
17725;SDS011;8983;53.156;17.960;2023-08-21T12:58:28;6.35;;;2.08;;
17725;SDS011;8983;53.156;17.960;2023-08-21T13:00:56;2.95;;;1.95;;
17725;SDS011;8983;53.156;17.960;2023-08-21T13:03:25;3.88;;;1.85;;
17725;SDS011;8983;53.156;17.960;2023-08-21T13:05:56;3.97;;;1.98;;
17725;SDS011;8983;53.156;17.960;2023-08-21T13:08:24;3.33;;;1.88;;
17725;SDS011;8983;53.156;17.960;2023-08-21T13:10:53;4.53;;;1.92;;
17725;SDS011;8983;53.156;17.960;2023-08-21T13:13:21;4.32;;;2.25;;
17725;SDS011;8983;53.156;17.960;2023-08-21T13:15:49;2.70;;;2.10;;
17725;SDS011;8983;53.156;17.960;2023-08-21T13:18:18;2.63;;;2.20;;
17725;SDS011;8983;53.156;17.960;2023-08-21T13:20:46;2.75;;;2.00;;
17725;SDS011;8983;53.156;17.960;2023-08-21T13:23:15;2.80;;;1.80;;
17725;SDS011;8983;53.156;17.960;2023-08-21T13:25:43;3.65;;;2.03;;
17725;SDS011;8983;53.156;17.960;2023-08-21T13:28:12;3.47;;;2.50;;
17725;SDS011;8983;53.156;17.960;2023-08-21T13:30:40;5.00;;;2.20;;
17725;SDS011;8983;53.156;17.960;2023-08-21T13:33:08;3.58;;;2.20;;
17725;SDS011;8983;53.156;17.960;2023-08-21T13:35:36;5.72;;;2.25;;
17725;SDS011;8983;53.156;17.960;2023-08-21T13:38:04;2.20;;;1.92;;
17725;SDS011;8983;53.156;17.960;2023-08-21T13:40:36;2.97;;;2.20;;
17725;SDS011;8983;53.156;17.960;2023-08-21T13:43:04;4.38;;;2.20;;
17725;SDS011;8983;53.156;17.960;2023-08-21T13:45:33;3.85;;;2.38;;
17725;SDS011;8983;53.156;17.960;2023-08-21T13:48:01;5.35;;;2.22;;
17725;SDS011;8983;53.156;17.960;2023-08-21T13:50:31;3.30;;;2.20;;
17725;SDS011;8983;53.156;17.960;2023-08-21T13:52:59;5.03;;;1.95;;
17725;SDS011;8983;53.156;17.960;2023-08-21T13:55:27;4.25;;;2.15;;
17725;SDS011;8983;53.156;17.960;2023-08-21T13:57:56;3.60;;;2.33;;
17725;SDS011;8983;53.156;17.960;2023-08-21T14:00:24;4.63;;;2.00;;
17725;SDS011;8983;53.156;17.960;2023-08-21T14:02:52;2.97;;;2.22;;
17725;SDS011;8983;53.156;17.960;2023-08-21T14:05:20;2.90;;;2.00;;
17725;SDS011;8983;53.156;17.960;2023-08-21T14:07:49;2.40;;;1.92;;
17725;SDS011;8983;53.156;17.960;2023-08-21T14:10:17;3.10;;;2.38;;
17725;SDS011;8983;53.156;17.960;2023-08-21T14:12:45;6.18;;;2.13;;
17725;SDS011;8983;53.156;17.960;2023-08-21T14:15:14;3.35;;;2.13;;
17725;SDS011;8983;53.156;17.960;2023-08-21T14:17:44;3.75;;;2.00;;
17725;SDS011;8983;53.156;17.960;2023-08-21T14:20:12;3.58;;;2.22;;
17725;SDS011;8983;53.156;17.960;2023-08-21T14:22:40;2.20;;;2.00;;
17725;SDS011;8983;53.156;17.960;2023-08-21T14:25:08;4.57;;;2.22;;
17725;SDS011;8983;53.156;17.960;2023-08-21T14:27:37;4.68;;;2.00;;
17725;SDS011;8983;53.156;17.960;2023-08-21T14:30:06;4.13;;;1.90;;
17725;SDS011;8983;53.156;17.960;2023-08-21T14:32:36;3.00;;;2.20;;
17725;SDS011;8983;53.156;17.960;2023-08-21T14:35:05;2.13;;;1.75;;
17725;SDS011;8983;53.156;17.960;2023-08-21T14:37:35;6.85;;;2.20;;
17725;SDS011;8983;53.156;17.960;2023-08-21T14:40:03;2.63;;;2.10;;
17725;SDS011;8983;53.156;17.960;2023-08-21T14:42:34;5.82;;;2.40;;
17725;SDS011;8983;53.156;17.960;2023-08-21T14:45:03;3.03;;;2.03;;
17725;SDS011;8983;53.156;17.960;2023-08-21T14:47:32;5.45;;;1.88;;
17725;SDS011;8983;53.156;17.960;2023-08-21T14:50:04;6.10;;;2.10;;
17725;SDS011;8983;53.156;17.960;2023-08-21T14:52:33;3.67;;;2.30;;
17725;SDS011;8983;53.156;17.960;2023-08-21T14:55:02;2.35;;;2.08;;
17725;SDS011;8983;53.156;17.960;2023-08-21T14:57:30;3.60;;;1.98;;
17725;SDS011;8983;53.156;17.960;2023-08-21T14:59:59;2.50;;;2.00;;
17725;SDS011;8983;53.156;17.960;2023-08-21T15:02:27;5.35;;;2.13;;